KHLB/HLB METAR and TAF weather

Enter ICAO airport designator
Station Type Date Time Source
KHLB METAR 2022/07/03 14:35 UTC NOAA

KHLB 031435Z AUTO 07005KT 10SM BKN110 26/16 A3015 RMK A01


Station Type Date Time Source
KHLB Decoded METAR 2022/07/03 14:35 UTC NOAA

Station name not available
Jul 03, 2022 - 10:35 AM EDT / 2022.07.03 1435 UTC
Wind: from the ENE (070 degrees) at 6 MPH (5 KT):0
Visibility: 10 mile(s):0
Sky conditions: mostly cloudy
Temperature: 78 F (26 C)
Dew Point: 60 F (16 C)
Relative Humidity: 54%
Pressure (altimeter): 30.15 in. Hg (1020 hPa)
ob: KHLB 031435Z AUTO 07005KT 10SM BKN110 26/16 A3015 RMK A01
cycle: 14

Station Type Date Time Source
KHLB TAF UTC NOAA

Error!

Example: see airport list